Sargents, CO (81248)

5:30 PM MST on February 12, 2016 (GMT -0700)
MesoWest | | Change Station
CLOSE
Current Station
Personal Weather Station
Location: Sargents, CO
Elevation: 10760 ft
Nearby Weather Stations

Elev 10760 ft 38.49 °N, 106.34 °W | Updated 1 hour ago

Clear
Clear
41.0 °F
Feels Like 41.0 °F
N
0.0
Wind Variable Wind from North
Gusts 0.0 mph

Today
High -- | Low -- °F
--% Chance of Precip.
Yesterday
High -- | Low -- °F
Precip. -- in
Pressure 30.33 in
Visibility 10.0 miles
Clouds Clear
Dew Point Not available.
Humidity Not available.
Rainfall in
Snow Depth Not available.
7:00 AM 5:39 PM
Waxing Crescent, 25% visible
METAR KAEJ 130015Z AUTO 21004KT 10SM CLR 08/M05 A3033 RMK AO2 T00801052
Pressure 30.33 in
Visibility 10.0 miles
Clouds Clear
Dew Point Not available.
Humidity Not available.
Rainfall in
Snow Depth Not available.
7:00 AM 5:39 PM
Waxing Crescent, 25% visible
METAR KAEJ 130015Z AUTO 21004KT 10SM CLR 08/M05 A3033 RMK AO2 T00801052

10-Day Weather Forecast

Almanac

Astronomy

Feb. 12, 2016 Rise Set
Actual Time
Civil Twilight
Nautical Twilight
Astronomical Twilight
Moon
Length of Visible Light
Length of Day
Tomorrow will be .
, % of the Moon is Illuminated

Today's Extremes

State Highs State Lows

Community

WunderPhotos

Upload Photos

1,892,439 photos uploaded!

WunderBlog® & News

Nearby

Air Quality

  Air Quality AQ Index Pollutant
Not available.

Snow Depth

Station Depth Elevation

Earthquake Activity

City Distance Mag. Time & Date
Minimum magnitude displayed is 2.5.

Coastal Water Temperatures

Place Temperature

Stations

Nearby Weather Stations

Station Location Temp. Windchill Dew Point Humidity Wind Precip. Elev Updated Type
                   

Watches & Warnings

There are currently no watches in effect.